createdAt,value
2018-07-16T00:03:14.502Z,21.90
2018-07-16T00:08:18.943Z,21.70
2018-07-16T00:13:23.349Z,21.60
2018-07-16T00:18:27.824Z,21.70
2018-07-16T00:23:32.038Z,21.70
2018-07-16T00:33:40.039Z,21.50
2018-07-16T00:38:44.265Z,21.50
2018-07-16T00:43:48.715Z,21.60
2018-07-16T00:48:53.151Z,21.50
2018-07-16T00:53:57.577Z,21.50
2018-07-16T01:04:07.037Z,21.40
2018-07-16T01:09:11.214Z,21.20
2018-07-16T01:14:15.561Z,21.30
2018-07-16T01:19:20.127Z,21.20
2018-07-16T01:24:24.930Z,21.10
2018-07-16T01:29:29.424Z,21.00
2018-07-16T01:34:34.771Z,21.00
2018-07-16T01:39:39.034Z,20.90
2018-07-16T01:44:43.288Z,20.80
2018-07-16T01:49:47.540Z,20.90
2018-07-16T01:54:52.371Z,21.00
2018-07-16T01:59:56.966Z,20.90
2018-07-16T02:05:01.490Z,20.90
2018-07-16T02:10:06.026Z,21.00
2018-07-16T02:15:10.398Z,21.00
2018-07-16T02:20:14.902Z,21.00
2018-07-16T02:25:19.302Z,21.00
2018-07-16T02:30:24.046Z,21.00
2018-07-16T02:35:28.690Z,21.00
2018-07-16T02:40:33.032Z,20.90
2018-07-16T02:45:37.325Z,20.90
2018-07-16T02:50:41.617Z,20.80
2018-07-16T02:55:45.870Z,20.90
2018-07-16T03:00:51.192Z,20.70
2018-07-16T03:05:55.576Z,20.60
2018-07-16T03:10:59.909Z,20.50
2018-07-16T03:16:04.414Z,20.50
2018-07-16T03:21:08.690Z,20.60
2018-07-16T03:26:12.886Z,20.60
2018-07-16T03:31:17.078Z,20.60
2018-07-16T03:36:21.394Z,20.60
2018-07-16T03:41:25.926Z,20.60
2018-07-16T03:46:30.172Z,20.60
2018-07-16T03:51:34.353Z,20.50
2018-07-16T03:56:38.524Z,20.60
2018-07-16T04:01:42.890Z,20.60
2018-07-16T04:06:47.171Z,20.60
2018-07-16T04:11:51.517Z,20.60
2018-07-16T04:16:56.113Z,20.70
2018-07-16T04:22:00.642Z,20.70
2018-07-16T04:27:04.883Z,20.90
2018-07-16T04:32:09.077Z,20.90
2018-07-16T04:37:13.336Z,21.10
2018-07-16T04:42:17.676Z,22.10
2018-07-16T04:47:22.919Z,24.60
2018-07-16T04:52:27.400Z,25.90
2018-07-16T04:57:31.717Z,26.70
2018-07-16T05:02:36.437Z,25.60
2018-07-16T05:07:40.516Z,25.90
2018-07-16T05:12:44.713Z,27.60
2018-07-16T05:17:48.966Z,26.20
2018-07-16T05:22:53.631Z,28.00
2018-07-16T05:27:58.210Z,29.60
2018-07-16T05:33:02.439Z,30.70
2018-07-16T05:38:06.822Z,31.10
2018-07-16T05:43:10.890Z,29.90
2018-07-16T05:48:15.154Z,31.50
2018-07-16T05:53:19.511Z,32.10
2018-07-16T05:58:24.824Z,32.70
2018-07-16T06:03:29.398Z,32.20
2018-07-16T06:08:37.603Z,30.50
2018-07-16T06:13:41.888Z,29.70
2018-07-16T06:18:46.116Z,30.40
2018-07-16T06:23:50.577Z,31.70
2018-07-16T06:28:54.925Z,28.60
2018-07-16T06:34:00.862Z,27.30
2018-07-16T06:39:05.659Z,26.80
2018-07-16T06:44:10.234Z,26.50
2018-07-16T06:49:14.344Z,26.80
2018-07-16T06:54:18.613Z,26.70
2018-07-16T06:59:23.532Z,26.40
2018-07-16T07:10:03.128Z,26.40
2018-07-16T07:15:07.352Z,26.30
2018-07-16T07:20:11.729Z,26.60
2018-07-16T07:25:15.891Z,27.00
2018-07-16T07:30:20.614Z,27.20
2018-07-16T07:35:25.322Z,27.00
2018-07-16T07:40:29.586Z,26.80
2018-07-16T07:45:34.042Z,26.70
2018-07-16T07:50:38.282Z,26.70
2018-07-16T07:55:42.545Z,26.50
2018-07-16T08:00:46.658Z,26.30
2018-07-16T08:05:57.578Z,26.20
2018-07-16T08:11:13.341Z,26.50
2018-07-16T08:16:19.066Z,26.40
2018-07-16T08:21:23.868Z,26.40
2018-07-16T08:26:28.382Z,26.40
2018-07-16T08:31:32.677Z,26.40
2018-07-16T08:36:36.833Z,26.40
2018-07-16T08:47:13.631Z,26.50
2018-07-16T08:52:17.818Z,26.30
2018-07-16T08:57:21.984Z,26.10
2018-07-16T09:02:45.621Z,25.90
2018-07-16T09:07:49.735Z,26.20
2018-07-16T09:12:53.855Z,26.90
2018-07-16T09:17:57.907Z,27.20
2018-07-16T09:23:02.038Z,27.40
2018-07-16T09:28:06.098Z,27.40
2018-07-16T09:33:10.272Z,27.50
2018-07-16T09:38:16.095Z,27.80
2018-07-16T09:43:20.266Z,27.80
2018-07-16T09:48:24.408Z,28.00
2018-07-16T09:53:28.525Z,27.80
2018-07-16T09:58:32.589Z,27.60
2018-07-16T10:03:36.692Z,27.70
2018-07-16T10:08:40.745Z,28.00
2018-07-16T10:18:48.596Z,27.80
2018-07-16T10:23:52.647Z,27.90
2018-07-16T10:28:56.801Z,28.00
2018-07-16T10:34:01.037Z,28.10
2018-07-16T10:39:06.889Z,28.20
2018-07-16T10:44:10.995Z,28.00
2018-07-16T10:49:16.274Z,28.10
2018-07-16T10:54:20.624Z,28.00
2018-07-16T10:59:25.125Z,27.90
2018-07-16T11:04:29.475Z,27.90
2018-07-16T11:09:34.003Z,27.80
2018-07-16T11:14:38.336Z,28.00
2018-07-16T11:19:42.804Z,28.00
2018-07-16T11:24:46.992Z,27.90
2018-07-16T11:29:51.351Z,27.80
2018-07-16T11:34:55.804Z,27.90
2018-07-16T11:39:59.840Z,28.00
2018-07-16T11:45:27.511Z,28.10
2018-07-16T11:50:31.674Z,28.00
2018-07-16T11:55:36.397Z,27.90
2018-07-16T12:00:40.557Z,27.90
2018-07-16T12:10:49.129Z,27.80
2018-07-16T12:15:53.358Z,28.00
2018-07-16T12:20:57.454Z,27.90
2018-07-16T12:26:02.101Z,28.10
2018-07-16T12:31:06.608Z,28.30
2018-07-16T12:36:10.945Z,28.30
2018-07-16T12:41:15.276Z,28.40
2018-07-16T12:46:19.635Z,28.50
2018-07-16T12:51:24.073Z,28.40
2018-07-16T12:56:28.836Z,28.30
2018-07-16T13:01:33.232Z,28.20
2018-07-16T13:06:37.384Z,28.20
2018-07-16T13:11:41.908Z,28.30
2018-07-16T13:16:46.459Z,28.30
2018-07-16T13:21:51.200Z,28.40
2018-07-16T13:26:55.724Z,28.40
2018-07-16T13:32:00.292Z,28.40
2018-07-16T13:37:04.433Z,28.40
2018-07-16T13:42:08.668Z,28.30
2018-07-16T13:47:13.159Z,28.40
2018-07-16T13:52:18.250Z,28.20
2018-07-16T13:57:22.370Z,28.40
2018-07-16T14:02:27.160Z,28.40
2018-07-16T14:07:32.084Z,28.40
2018-07-16T14:12:36.244Z,28.50
2018-07-16T14:23:16.375Z,28.50
2018-07-16T14:28:21.078Z,28.70
2018-07-16T14:33:27.281Z,28.70
2018-07-16T14:38:31.780Z,28.80
2018-07-16T14:43:36.109Z,28.80
2018-07-16T14:48:42.914Z,28.70
2018-07-16T14:53:54.707Z,28.70
2018-07-16T14:59:03.258Z,28.60
2018-07-16T15:04:09.470Z,28.60
2018-07-16T15:09:13.736Z,28.60
2018-07-16T15:14:18.261Z,28.60
2018-07-16T15:19:22.680Z,28.60
2018-07-16T15:24:27.346Z,28.50
2018-07-16T15:29:31.834Z,28.60
2018-07-16T15:39:39.679Z,28.70
2018-07-16T15:44:44.345Z,28.70
2018-07-16T15:49:49.260Z,28.70
2018-07-16T15:54:53.968Z,28.60
2018-07-16T15:59:58.725Z,28.70
2018-07-16T16:05:03.154Z,28.50
2018-07-16T16:10:07.834Z,28.60
2018-07-16T16:15:12.012Z,28.70
2018-07-16T16:20:17.276Z,28.70
2018-07-16T16:25:22.698Z,28.70
2018-07-16T16:30:27.796Z,28.70
2018-07-16T16:35:32.504Z,28.80
2018-07-16T16:40:37.040Z,28.60
2018-07-16T16:45:41.616Z,28.70
2018-07-16T16:50:45.722Z,28.70
2018-07-16T16:55:51.250Z,28.70
2018-07-16T17:00:56.537Z,28.70
2018-07-16T17:06:00.929Z,28.70
2018-07-16T17:11:05.383Z,28.70
2018-07-16T17:16:10.066Z,28.60
2018-07-16T17:21:14.489Z,28.60
2018-07-16T17:26:19.389Z,28.60
2018-07-16T17:31:24.418Z,28.70
2018-07-16T17:36:28.920Z,28.50
2018-07-16T17:41:33.505Z,28.50
2018-07-16T17:46:37.716Z,28.50
2018-07-16T17:51:42.531Z,28.30
2018-07-16T17:56:46.930Z,28.30
2018-07-16T18:01:51.637Z,28.30
2018-07-16T18:06:57.234Z,28.20
2018-07-16T18:12:02.005Z,28.10
2018-07-16T18:17:06.704Z,28.10
2018-07-16T18:22:11.194Z,28.00
2018-07-16T18:27:16.144Z,28.00
2018-07-16T18:32:21.101Z,27.80
2018-07-16T18:37:26.092Z,27.80
2018-07-16T18:42:30.551Z,27.80
2018-07-16T18:52:38.760Z,27.60
2018-07-16T18:57:42.862Z,27.70
2018-07-16T19:02:47.343Z,27.60
2018-07-16T19:07:51.787Z,27.60
2018-07-16T19:12:56.674Z,27.60
2018-07-16T19:18:01.018Z,27.40
2018-07-16T19:23:05.678Z,27.40
2018-07-16T19:28:10.259Z,27.20
2018-07-16T19:33:14.414Z,27.10
2018-07-16T19:38:21.164Z,27.00
2018-07-16T19:43:26.492Z,27.10
2018-07-16T19:48:33.082Z,26.80
2018-07-16T19:53:37.377Z,26.30
2018-07-16T19:58:43.570Z,26.20
2018-07-16T20:03:55.000Z,26.00
2018-07-16T20:08:59.527Z,25.80
2018-07-16T20:14:04.094Z,25.50
2018-07-16T20:19:08.782Z,25.00
2018-07-16T20:24:13.169Z,24.90
2018-07-16T20:29:17.688Z,24.80
2018-07-16T20:34:22.599Z,24.60
2018-07-16T20:39:27.042Z,24.40
2018-07-16T20:44:31.212Z,24.30
2018-07-16T20:49:35.909Z,24.00
2018-07-16T20:54:40.347Z,24.00
2018-07-16T20:59:44.563Z,23.90
2018-07-16T21:04:49.198Z,23.80
2018-07-16T21:09:54.251Z,23.70
2018-07-16T21:14:58.623Z,23.80
2018-07-16T21:20:03.830Z,23.70
2018-07-16T21:25:09.684Z,23.70
2018-07-16T21:30:14.386Z,23.70
2018-07-16T21:35:18.771Z,23.50
2018-07-16T21:40:23.720Z,23.40
2018-07-16T21:45:28.124Z,23.20
2018-07-16T21:50:32.241Z,23.10
2018-07-16T21:55:36.928Z,22.90
2018-07-16T22:05:45.657Z,23.00
2018-07-16T22:10:50.311Z,23.00
2018-07-16T22:15:55.294Z,22.90
2018-07-16T22:20:59.630Z,22.70
2018-07-16T22:26:04.256Z,22.60
2018-07-16T22:31:08.886Z,22.70
2018-07-16T22:36:13.170Z,22.90
2018-07-16T22:41:17.673Z,22.70
2018-07-16T22:46:22.463Z,22.70
2018-07-16T22:51:27.034Z,22.90
2018-07-16T22:56:31.957Z,22.80
2018-07-16T23:01:36.313Z,22.70
2018-07-16T23:06:40.817Z,22.70
2018-07-16T23:11:45.741Z,22.90
2018-07-16T23:16:50.917Z,23.00
2018-07-16T23:21:55.980Z,23.00
2018-07-16T23:27:00.530Z,22.90
2018-07-16T23:32:04.752Z,23.00
2018-07-16T23:37:09.187Z,23.10
2018-07-16T23:42:13.723Z,23.10
2018-07-16T23:47:18.221Z,23.30
2018-07-16T23:52:23.173Z,23.30
2018-07-16T23:57:27.756Z,23.40
